Accueil
METAR-TAF:

METAR-TAF

Aéroports :

Whiting_Field_Naval_Air_Station_South_Airport

Milton, Floride, États-Unis

latitude: 30-41-50N, longitude: 087-01-12W, altitude: 54 m

Observation

Le bulletin a été fait il y a 1 heure et 52 minutes, à 06:03 UTC
Vent 4 kt de sud-est
Température 24°C
Humidité 89%
Pression 1017 hPa
Visibilité: 16.1 km
Nuages fragmentés à une hauteur de 1100 ft

METAR: KNDZ 290603Z AUTO 14004KT 10SM BKN011 24/22 A3002 RMK AO2 T02440222 $

Heure: 02:55 (07:55 UTC)


TAF: absent

Observations et prévisions météorologiques de plus de 4000 aéroports (messages METAR et TAF).

Les stations disponibles sont représentées par des disques jaunes et rouges sur la carte.

Passer la souris dessus pour voir le nom de la station.

Cliquer dessus pour voir les observations et prévisions météorologiques.

Pour changer de carte: cliquez sur les boutons verts avec une croix noire pour zoomer, sur le bouton vert avec un tiret pour effectuer un zoom arrière, ou sur les flèches vertes pour les cartes adjacentes.


METAR-TAF: